EPKP weather

Pobiednik Wielki Airport
Kraków, Lesser Poland, Poland

Public forecast

Using degrees Celsius for public forecast. Weather courtesy of forecast.io.

METAR (pilot weather report)

Closest report is Kraków John Paul II International Airport, 16.1 nm (29.8 km) W. Retrieved 2019/03/26 17:30 UTC (28 minutes ago):

EPKK 261730Z 26016KT 9999 BKN057 06/M04 Q1019

TAF (pilot weather forecast)

Closest forecast is Kraków John Paul II International Airport, 16.1 nm (29.8 km) W. Retrieved 2019/03/26 15:36 UTC (2 hours ago):

TAF EPKK 261430Z 2615/2715 26015G25KT 9999 BKN033 TEMPO 2615/2619 28020G35KT 4000 SHRA BKN016CB TEMPO 2619/2624 2000 SHRA SHSNRA BKN008 BKN016CB BECMG 2621/2624 28007KT